Azusa, California
Current Conditions -  °F | °C
As of 12:47 PM on Monday 24 Nov 2014 (Local Time) from KPOC Reporting Station
Clear Clear  
Wind Chill: 24°   Ceiling: Unl
Heat Index: 24°   Visibility: 10mi
Dew Point: -9°   Wind: 8mph
Humidity: 11%   Direction: 260°W
Pressure: 30.21"   Gusts: NA
Location:  34.13°N, 117.9°W
Report Text: KPOC 242047Z 26007KT 10SM CLR 24/M09 A3021
Loading
Personal Weather Stations






























Interactive Weather Map New forecast layout! Learn more

10-Day Weather Forecast

Advertisements
Track Severe Weather on mobile